Main page
METAR-TAF:

METAR-TAF

Airports :

Mallam Aminu Kano International Airport

Kano, Nigeria

latitude: 12-03N, longitude: 008-32E, elevation: 476 m

Current weather observation

The report was made 36 minutes ago, at 20:00 UTC
Wind 2 kt from variable directions
Temperature 19°C
Humidity 40%
Pressure 1017 hPa
Visibility 10 km or more
no clouds below 1500 m and no cumulonimbus

METAR: DNKN 152000Z VRB02KT CAVOK 19/05 Q1017 NOSIG

Time: 21:36 (20:36 UTC)

Forecast

The report was made 3 hours and 46 minutes ago, at 16:50 UTC
Forecast valid from 15 at 18 UTC to 17 at 00 UTC
Wind 10 kt from the Northeast
Visibility 10 km or more
no clouds below 1500 m and no cumulonimbus
Temporary
from 15 at 21 UTC to 16 at 03 UTC
Wind 2 kt from variable directions
Temporary
from 16 at 07 UTC to 16 at 12 UTC
Visibility: 5000 m
haze

TAF: DNKN 151650Z 1518/1700 05010KT CAVOK TEMPO 1521/1603 VRB02KT TEMPO 1607/1612 5000 HZ

Weather observations and forecasts of more than 4000 airports (METAR and TAF reports).

The available stations are represented by yellow and red dots on the map.

Hover mouse over dot to see the name of the station.

Then click to see weather observations and forecasts.

To change the map : click on the green buttons with a black cross to zoom in, on the green button with a dash to zoom out, or on the green arrows for adjacent maps.


METAR-TAF: